Tracer — PHAC — position and weather

sailwx.info

Track history (hours):
 
Tides and Currents Weather Stations Pressure Air Temp Water Temp Dewpoint Dewpoint Depression Visibility Wind Speed Wind Dir Waves Ship Positions

Tracer

Last reported at 2017-May-23 13:33 UTC. Time now 2017-May-23 14:57 UTC.
Position N 45°40' E 013°44'.

Length 101 m; beam 20 m.

Type: Cargo ship. MMSI: 245949000.

Date/timePositionNaut miles runAvg speedWind from/ knotsBaromVisibWave heightAir tempDewpointWater temp
2017-May-23 13:33N 45°40' E 013°44'0 0.0
2017-May-23 13:27N 45°40' E 013°44'0 0.0
2017-May-23 12:24N 45°40' E 013°44'0 0.0
2017-May-23 11:21N 45°40' E 013°44'0 0.0
2017-May-23 10:57N 45°40' E 013°44'0 0.0
2017-May-23 10:24N 45°40' E 013°44'0 0.0
2017-May-23 10:00N 45°40' E 013°44'0 0.0
2017-May-23 09:12N 45°40' E 013°44'0 0.0
2017-May-23 08:54N 45°40' E 013°44'0 0.0
2017-May-23 07:54N 45°40' E 013°44'0 0.1
2017-May-23 07:24N 45°40' E 013°44'0 0.0
2017-May-23 07:00N 45°40' E 013°44'0 0.1
2017-May-23 06:30N 45°40' E 013°44'1 2.5
2017-May-23 06:00N 45°39' E 013°42'611.1
2017-May-23 05:30N 45°36' E 013°35'612.0
2017-May-23 05:00N 45°33' E 013°28'612.0
2017-May-23 04:30N 45°30' E 013°21'612.3
2017-May-23 04:00N 45°25' E 013°15'611.8
2017-May-23 03:30N 45°20' E 013°11'612.3
2017-May-23 03:00N 45°14' E 013°13'612.2
2017-May-23 02:30N 45°08' E 013°15'612.3
2017-May-23 02:00N 45°02' E 013°19'612.2
2017-May-23 01:30N 44°57' E 013°22'612.3
2017-May-23 01:00N 44°52' E 013°27'612.0
2017-May-23 00:30N 44°46' E 013°31'612.2
2017-May-23 00:00N 44°41' E 013°36'612.2
2017-May-22 23:30N 44°36' E 013°41'611.9
2017-May-22 23:00N 44°31' E 013°45'611.8
2017-May-22 22:30N 44°26' E 013°50'611.8
2017-May-22 22:00N 44°21' E 013°55'611.8
2017-May-22 21:30N 44°17' E 013°59'612.0
2017-May-22 21:00N 44°12' E 014°04'  
2017-May-17 11:15N 31°15' E 032°18'0 0.0
2017-May-17 11:00N 31°15' E 032°18'6 0.2
2017-May-16 11:58N 31°19' E 032°22'3 6.1
2017-May-16 11:30N 31°22' E 032°20'1 0.9
2017-May-16 10:53N 31°21' E 032°19'0 0.0
2017-May-16 10:29N 31°21' E 032°19'0 0.0
2017-May-16 09:59N 31°21' E 032°19'127 4.6
2017-May-15 06:13N 32°25' E 030°09'9114.6
2017-May-15 00:00N 33°00' E 028°30'   330 / 71012.310.8 21.018.0
Track history (hours):
 
Tides and Currents Weather Stations Pressure Air Temp Water Temp Dewpoint Dewpoint Depression Visibility Wind Speed Wind Dir Waves Ship Positions

Tracer

Last reported at 2017-May-23 13:33 UTC. Time now 2017-May-23 14:57 UTC.
Position N 45°40' E 013°44'.

Length 101 m; beam 20 m.

Type: Cargo ship. MMSI: 245949000.

Date/timePositionNaut miles runAvg speedWind from/ knotsBaromVisibWave heightAir tempDewpointWater temp
2017-May-23 13:33N 45°40' E 013°44'0 0.0
2017-May-23 13:27N 45°40' E 013°44'0 0.0
2017-May-23 12:24N 45°40' E 013°44'0 0.0
2017-May-23 11:21N 45°40' E 013°44'0 0.0
2017-May-23 10:57N 45°40' E 013°44'0 0.0
2017-May-23 10:24N 45°40' E 013°44'0 0.0
2017-May-23 10:00N 45°40' E 013°44'0 0.0
2017-May-23 09:12N 45°40' E 013°44'0 0.0
2017-May-23 08:54N 45°40' E 013°44'0 0.0
2017-May-23 07:54N 45°40' E 013°44'0 0.1
2017-May-23 07:24N 45°40' E 013°44'0 0.0
2017-May-23 07:00N 45°40' E 013°44'0 0.1
2017-May-23 06:30N 45°40' E 013°44'1 2.5
2017-May-23 06:00N 45°39' E 013°42'611.1
2017-May-23 05:30N 45°36' E 013°35'612.0
2017-May-23 05:00N 45°33' E 013°28'612.0
2017-May-23 04:30N 45°30' E 013°21'612.3
2017-May-23 04:00N 45°25' E 013°15'611.8
2017-May-23 03:30N 45°20' E 013°11'612.3
2017-May-23 03:00N 45°14' E 013°13'612.2
2017-May-23 02:30N 45°08' E 013°15'612.3
2017-May-23 02:00N 45°02' E 013°19'612.2
2017-May-23 01:30N 44°57' E 013°22'612.3
2017-May-23 01:00N 44°52' E 013°27'612.0
2017-May-23 00:30N 44°46' E 013°31'612.2
2017-May-23 00:00N 44°41' E 013°36'612.2
2017-May-22 23:30N 44°36' E 013°41'611.9
2017-May-22 23:00N 44°31' E 013°45'611.8
2017-May-22 22:30N 44°26' E 013°50'611.8
2017-May-22 22:00N 44°21' E 013°55'611.8
2017-May-22 21:30N 44°17' E 013°59'612.0
2017-May-22 21:00N 44°12' E 014°04'  
2017-May-17 11:15N 31°15' E 032°18'0 0.0
2017-May-17 11:00N 31°15' E 032°18'6 0.2
2017-May-16 11:58N 31°19' E 032°22'3 6.1
2017-May-16 11:30N 31°22' E 032°20'1 0.9
2017-May-16 10:53N 31°21' E 032°19'0 0.0
2017-May-16 10:29N 31°21' E 032°19'0 0.0
2017-May-16 09:59N 31°21' E 032°19'127 4.6
2017-May-15 06:13N 32°25' E 030°09'9114.6
2017-May-15 00:00N 33°00' E 028°30'   330 / 71012.310.8 21.018.0

Dump ship's entire track history